createdAt,value
2017-08-05T00:00:44.539Z,99.99
2017-08-05T00:01:44.240Z,99.99
2017-08-05T00:02:44.201Z,99.99
2017-08-05T00:03:44.504Z,99.99
2017-08-05T00:04:44.183Z,99.99
2017-08-05T00:05:44.482Z,99.99
2017-08-05T00:06:44.160Z,99.99
2017-08-05T00:07:44.462Z,99.99
2017-08-05T00:08:44.135Z,99.99
2017-08-05T00:09:44.437Z,99.99
2017-08-05T00:10:44.430Z,99.99
2017-08-05T00:11:44.106Z,99.99
2017-08-05T00:12:44.416Z,99.99
2017-08-05T00:13:44.086Z,99.99
2017-08-05T00:14:44.383Z,99.99
2017-08-05T00:15:44.062Z,99.99
2017-08-05T00:16:44.052Z,99.99
2017-08-05T00:17:44.046Z,99.99
2017-08-05T00:18:44.340Z,99.99
2017-08-05T00:19:44.021Z,99.99
2017-08-05T00:20:44.005Z,99.99
2017-08-05T00:21:44.306Z,99.99
2017-08-05T00:22:44.296Z,99.99
2017-08-05T00:23:44.290Z,99.99
2017-08-05T00:24:44.281Z,99.99
2017-08-05T00:25:43.959Z,99.99
2017-08-05T00:26:44.254Z,99.99
2017-08-05T00:27:44.246Z,99.99
2017-08-05T00:28:44.232Z,99.99
2017-08-05T00:29:44.221Z,99.99
2017-08-05T00:30:43.898Z,99.99
2017-08-05T00:31:44.201Z,99.99
2017-08-05T00:32:44.190Z,99.99
2017-08-05T00:33:44.179Z,99.99
2017-08-05T00:34:44.170Z,99.99
2017-08-05T00:35:44.157Z,99.99
2017-08-05T00:36:44.150Z,99.99
2017-08-05T00:37:44.143Z,99.99
2017-08-05T00:38:44.128Z,99.99
2017-08-05T00:39:44.112Z,99.99
2017-08-05T00:40:43.787Z,99.99
2017-08-05T00:41:44.090Z,99.99
2017-08-05T00:42:44.080Z,99.99
2017-08-05T00:43:44.073Z,99.99
2017-08-05T00:44:43.749Z,99.99
2017-08-05T00:45:44.048Z,99.99
2017-08-05T00:46:44.033Z,99.99
2017-08-05T00:47:44.030Z,99.99
2017-08-05T00:48:44.011Z,99.99
2017-08-05T00:49:43.692Z,99.99
2017-08-05T00:50:43.992Z,99.99
2017-08-05T00:51:43.979Z,99.99
2017-08-05T00:52:43.658Z,99.99
2017-08-05T00:53:43.964Z,99.99
2017-08-05T00:54:43.634Z,99.99
2017-08-05T00:55:43.988Z,99.99
2017-08-05T00:56:43.927Z,99.99
2017-08-05T00:57:43.913Z,99.99
2017-08-05T00:58:43.903Z,99.99
2017-08-05T00:59:43.890Z,99.99
2017-08-05T01:00:43.569Z,99.99
2017-08-05T01:01:43.558Z,99.99
2017-08-05T01:02:43.548Z,99.99
2017-08-05T01:03:43.851Z,99.99
2017-08-05T01:04:43.837Z,99.99
2017-08-05T01:05:43.509Z,99.99
2017-08-05T01:06:43.810Z,99.99
2017-08-05T01:07:43.806Z,99.99
2017-08-05T01:08:43.789Z,99.99
2017-08-05T01:09:43.465Z,99.99
2017-08-05T01:10:43.452Z,99.99
2017-08-05T01:11:43.441Z,99.99
2017-08-05T01:12:43.740Z,99.99
2017-08-05T01:13:43.739Z,99.99
2017-08-05T01:14:43.410Z,99.99
2017-08-05T01:15:43.705Z,99.99
2017-08-05T01:16:43.385Z,99.99
2017-08-05T01:17:43.689Z,99.99
2017-08-05T01:18:43.675Z,99.99
2017-08-05T01:19:43.664Z,99.99
2017-08-05T01:20:43.334Z,99.99
2017-08-05T01:21:43.640Z,99.99
2017-08-05T01:22:43.635Z,99.99
2017-08-05T01:23:43.615Z,99.99
2017-08-05T01:24:43.601Z,99.99
2017-08-05T01:25:43.593Z,99.99
2017-08-05T01:26:43.586Z,99.99
2017-08-05T01:27:43.573Z,99.99
2017-08-05T01:28:43.759Z,99.99
2017-08-05T01:29:43.545Z,99.99
2017-08-05T01:30:43.222Z,99.99
2017-08-05T01:31:43.550Z,99.99
2017-08-05T01:32:43.203Z,99.99
2017-08-05T01:33:43.211Z,99.99
2017-08-05T01:34:43.484Z,99.99
2017-08-05T01:35:43.476Z,99.99
2017-08-05T01:36:43.460Z,99.99
2017-08-05T01:37:43.451Z,99.99
2017-08-05T01:38:43.435Z,99.99
2017-08-05T01:39:43.425Z,99.99
2017-08-05T01:40:43.106Z,99.99
2017-08-05T01:41:43.404Z,99.99
2017-08-05T01:42:43.075Z,99.99
2017-08-05T01:43:43.376Z,99.99
2017-08-05T01:44:43.058Z,99.99
2017-08-05T01:45:43.037Z,99.99
2017-08-05T01:46:43.346Z,99.99
2017-08-05T01:47:43.327Z,99.99
2017-08-05T01:48:43.056Z,99.99
2017-08-05T01:49:43.306Z,99.99
2017-08-05T01:50:43.294Z,99.99
2017-08-05T01:51:43.284Z,99.99
2017-08-05T01:52:42.959Z,99.99
2017-08-05T01:53:43.259Z,99.99
2017-08-05T01:54:43.245Z,99.99
2017-08-05T01:55:42.921Z,99.99
2017-08-05T01:56:43.220Z,99.99
2017-08-05T01:57:43.209Z,99.99
2017-08-05T01:58:43.200Z,99.99
2017-08-05T01:59:43.185Z,99.99
2017-08-05T02:00:43.173Z,99.99
2017-08-05T02:01:43.161Z,99.99
2017-08-05T02:02:43.151Z,99.99
2017-08-05T02:03:43.134Z,99.99
2017-08-05T02:04:43.126Z,99.99
2017-08-05T02:05:42.808Z,99.99
2017-08-05T02:06:43.098Z,99.99
2017-08-05T02:07:42.774Z,99.99
2017-08-05T02:08:43.072Z,99.99
2017-08-05T02:09:42.750Z,99.99
2017-08-05T02:10:43.060Z,99.99
2017-08-05T02:11:43.040Z,99.99
2017-08-05T02:12:43.026Z,99.99
2017-08-05T02:13:43.015Z,99.99
2017-08-05T02:14:43.007Z,99.99
2017-08-05T02:15:42.677Z,99.99
2017-08-05T02:16:42.695Z,99.99
2017-08-05T02:17:42.657Z,99.99
2017-08-05T02:18:42.954Z,99.99
2017-08-05T02:19:42.943Z,99.99
2017-08-05T02:20:42.929Z,99.99
2017-08-05T02:21:42.921Z,99.99
2017-08-05T02:22:42.911Z,99.99
2017-08-05T02:23:42.894Z,99.99
2017-08-05T02:24:42.888Z,99.99
2017-08-05T02:25:42.563Z,99.99
2017-08-05T02:26:42.551Z,99.99
2017-08-05T02:27:42.538Z,99.99
2017-08-05T02:28:42.840Z,99.99
2017-08-05T02:29:42.542Z,99.99
2017-08-05T02:30:42.817Z,99.99
2017-08-05T02:31:42.803Z,99.99
2017-08-05T02:32:42.799Z,99.99
2017-08-05T02:33:42.476Z,99.99
2017-08-05T02:34:42.771Z,99.99
2017-08-05T02:35:42.753Z,99.99
2017-08-05T02:36:42.749Z,99.99
2017-08-05T02:37:42.425Z,99.99
2017-08-05T02:38:42.720Z,99.99
2017-08-05T02:39:42.392Z,99.99
2017-08-05T02:40:42.385Z,99.99
2017-08-05T02:41:42.685Z,99.99
2017-08-05T02:42:42.673Z,99.99
2017-08-05T02:43:42.663Z,99.99
2017-08-05T02:44:42.648Z,99.99
2017-08-05T02:45:42.325Z,99.99
2017-08-05T02:46:42.629Z,99.99
2017-08-05T02:47:42.609Z,99.99
2017-08-05T02:48:42.288Z,99.99
2017-08-05T02:49:42.596Z,99.99
2017-08-05T02:50:42.578Z,99.99
2017-08-05T02:51:42.568Z,99.99
2017-08-05T02:52:42.562Z,99.99
2017-08-05T02:53:42.228Z,99.99
2017-08-05T02:54:42.530Z,99.99
2017-08-05T02:55:42.517Z,99.99
2017-08-05T02:56:42.508Z,99.99
2017-08-05T02:57:42.496Z,99.99
2017-08-05T02:58:42.484Z,99.99
2017-08-05T02:59:42.486Z,99.99
2017-08-05T03:00:42.148Z,99.99
2017-08-05T03:01:42.450Z,99.99
2017-08-05T03:02:42.447Z,99.99
2017-08-05T03:03:42.428Z,99.99
2017-08-05T03:04:42.424Z,99.99
2017-08-05T03:05:42.404Z,99.99
2017-08-05T03:06:42.395Z,99.99
2017-08-05T03:07:42.377Z,99.99
2017-08-05T03:08:42.056Z,99.99
2017-08-05T03:09:42.043Z,99.99
2017-08-05T03:10:42.372Z,99.99
2017-08-05T03:11:42.024Z,99.99
2017-08-05T03:12:42.325Z,99.99
2017-08-05T03:13:42.000Z,99.99
2017-08-05T03:14:41.998Z,99.99
2017-08-05T03:15:42.289Z,99.99
2017-08-05T03:16:42.278Z,99.99
2017-08-05T03:17:42.278Z,99.99
2017-08-05T03:18:41.943Z,99.99
2017-08-05T03:19:42.249Z,99.99
2017-08-05T03:20:42.230Z,99.99
2017-08-05T03:21:42.217Z,99.99
2017-08-05T03:22:41.896Z,99.99
2017-08-05T03:23:41.887Z,99.99
2017-08-05T03:24:41.871Z,99.99
2017-08-05T03:25:42.176Z,99.99
2017-08-05T03:26:41.854Z,99.99
2017-08-05T03:27:42.152Z,99.99
2017-08-05T03:28:42.343Z,99.99
2017-08-05T03:29:41.814Z,99.99
2017-08-05T03:30:41.812Z,99.99
2017-08-05T03:31:42.104Z,99.99
2017-08-05T03:32:42.093Z,99.99
2017-08-05T03:33:41.772Z,99.99
2017-08-05T03:34:42.081Z,99.99
2017-08-05T03:35:42.061Z,99.99
2017-08-05T03:36:42.057Z,99.99
2017-08-05T03:37:41.724Z,99.99
2017-08-05T03:38:42.027Z,99.99
2017-08-05T03:39:42.015Z,99.99
2017-08-05T03:40:42.007Z,99.99
2017-08-05T03:41:41.681Z,99.99
2017-08-05T03:42:41.978Z,99.99
2017-08-05T03:43:41.661Z,99.99
2017-08-05T03:44:41.648Z,99.99
2017-08-05T03:45:41.635Z,99.99
2017-08-05T03:46:41.939Z,99.99
2017-08-05T03:47:41.925Z,99.99
2017-08-05T03:48:41.914Z,99.99
2017-08-05T03:49:41.588Z,99.99
2017-08-05T03:50:41.585Z,99.99
2017-08-05T03:51:41.880Z,99.99
2017-08-05T03:52:41.868Z,99.99
2017-08-05T03:53:41.855Z,99.99
2017-08-05T03:54:41.852Z,99.99
2017-08-05T03:55:41.834Z,99.99
2017-08-05T03:56:41.509Z,99.99
2017-08-05T03:57:41.811Z,99.99
2017-08-05T03:58:41.816Z,99.99
2017-08-05T03:59:41.788Z,99.99
2017-08-05T04:00:41.776Z,99.99
2017-08-05T04:01:41.771Z,99.99
2017-08-05T04:02:41.441Z,99.99
2017-08-05T04:03:41.743Z,99.99
2017-08-05T04:04:41.724Z,99.99
2017-08-05T04:05:41.766Z,99.99
2017-08-05T04:06:41.703Z,99.99
2017-08-05T04:07:41.690Z,99.99
2017-08-05T04:08:41.707Z,99.99
2017-08-05T04:09:41.670Z,99.99
2017-08-05T04:10:41.341Z,99.99
2017-08-05T04:11:41.336Z,99.58
2017-08-05T04:12:41.631Z,97.38
2017-08-05T04:13:41.619Z,97.66
2017-08-05T04:14:41.635Z,96.27
2017-08-05T04:15:41.290Z,95.31
2017-08-05T04:16:41.273Z,95.6
2017-08-05T04:17:41.573Z,95.7
2017-08-05T04:18:41.557Z,93.88
2017-08-05T04:19:41.543Z,92.82
2017-08-05T04:20:41.586Z,93.49
2017-08-05T04:21:41.522Z,91.77
2017-08-05T04:22:41.516Z,91.77
2017-08-05T04:23:41.185Z,91.39
2017-08-05T04:24:41.498Z,91.49
2017-08-05T04:25:41.524Z,90.43
2017-08-05T04:26:41.460Z,89.95
2017-08-05T04:27:41.446Z,90.14
2017-08-05T04:28:41.124Z,89.47
2017-08-05T04:29:41.423Z,88.61
2017-08-05T04:30:41.092Z,88.23
2017-08-05T04:31:41.395Z,88.42
2017-08-05T04:32:41.070Z,87.27
2017-08-05T04:33:41.368Z,86.79
2017-08-05T04:34:41.360Z,86.41
2017-08-05T04:35:41.347Z,86.41
2017-08-05T04:36:41.349Z,86.12
2017-08-05T04:37:41.006Z,85.64
2017-08-05T04:38:41.308Z,85.74
2017-08-05T04:39:41.296Z,85.25
2017-08-05T04:40:41.282Z,85.06
2017-08-05T04:41:41.271Z,83.92
2017-08-05T04:42:41.257Z,84.35
2017-08-05T04:43:41.246Z,84.3
2017-08-05T04:44:41.234Z,83.92
2017-08-05T04:45:41.216Z,83.97
2017-08-05T04:46:41.204Z,83.78
2017-08-05T04:47:41.197Z,83.97
2017-08-05T04:48:41.181Z,83.39
2017-08-05T04:49:41.174Z,83.25
2017-08-05T04:50:41.160Z,82.92
2017-08-05T04:51:41.143Z,82.73
2017-08-05T04:52:41.142Z,82.06
2017-08-05T04:53:40.811Z,81.67
2017-08-05T04:54:41.107Z,81.1
2017-08-05T04:55:41.090Z,81.04
2017-08-05T04:56:40.763Z,80.94
2017-08-05T04:57:40.760Z,80.47
2017-08-05T04:58:41.053Z,80.37
2017-08-05T04:59:40.726Z,79.99
2017-08-05T05:00:41.024Z,79.6
2017-08-05T05:01:41.015Z,79.8
2017-08-05T05:02:40.686Z,79.7
2017-08-05T05:03:40.675Z,79.32
2017-08-05T05:04:40.983Z,78.45
2017-08-05T05:05:40.972Z,78.74
2017-08-05T05:06:40.953Z,78.36
2017-08-05T05:07:40.638Z,77.5
2017-08-05T05:08:40.613Z,77.97
2017-08-05T05:09:40.920Z,78.17
2017-08-05T05:10:40.903Z,78.36
2017-08-05T05:11:40.579Z,77.69
2017-08-05T05:12:40.881Z,77.4
2017-08-05T05:13:40.873Z,77.4
2017-08-05T05:14:40.853Z,77.31
2017-08-05T05:15:40.844Z,77.11
2017-08-05T05:16:40.829Z,77.69
2017-08-05T05:17:40.814Z,76.92
2017-08-05T05:18:41.235Z,76.92
2017-08-05T05:19:40.790Z,76.06
2017-08-05T05:20:40.777Z,76.15
2017-08-05T05:21:40.767Z,75.96
2017-08-05T05:22:40.450Z,76.64
2017-08-05T05:23:40.744Z,76.06
2017-08-05T05:24:40.730Z,76.15
2017-08-05T05:25:40.404Z,75.96
2017-08-05T05:26:40.714Z,75.68
2017-08-05T05:27:40.391Z,75.96
2017-08-05T05:28:40.584Z,76.25
2017-08-05T05:29:40.670Z,75.58
2017-08-05T05:30:40.657Z,75.01
2017-08-05T05:31:40.331Z,75.2
2017-08-05T05:32:40.634Z,75.29
2017-08-05T05:33:40.618Z,75.2
2017-08-05T05:34:40.295Z,75.2
2017-08-05T05:35:40.289Z,74.72
2017-08-05T05:36:40.270Z,74.52
2017-08-05T05:37:40.573Z,73.95
2017-08-05T05:38:40.557Z,74.15
2017-08-05T05:39:40.544Z,74.43
2017-08-05T05:40:40.533Z,73.95
2017-08-05T05:41:40.522Z,74.33
2017-08-05T05:42:40.196Z,74.05
2017-08-05T05:43:40.184Z,73.86
2017-08-05T05:44:40.491Z,74.24
2017-08-05T05:45:40.473Z,74.05
2017-08-05T05:46:40.509Z,74.24
2017-08-05T05:47:40.445Z,74.24
2017-08-05T05:48:40.128Z,73.86
2017-08-05T05:49:40.424Z,73.95
2017-08-05T05:50:40.098Z,74.43
2017-08-05T05:51:40.089Z,74.05
2017-08-05T05:52:40.086Z,73.95
2017-08-05T05:53:40.060Z,73.86
2017-08-05T05:54:40.366Z,73.66
2017-08-05T05:55:40.040Z,73.86
2017-08-05T05:56:40.339Z,74.05
2017-08-05T05:57:40.327Z,73.47
2017-08-05T05:58:40.003Z,73.66
2017-08-05T05:59:39.987Z,73.38
2017-08-05T06:00:39.977Z,73.86
2017-08-05T06:01:40.282Z,73.47
2017-08-05T06:02:40.265Z,73.66
2017-08-05T06:03:40.255Z,73.95
2017-08-05T06:04:39.928Z,73.95
2017-08-05T06:05:40.229Z,73.76
2017-08-05T06:06:40.216Z,74.05
2017-08-05T06:07:40.206Z,73.86
2017-08-05T06:08:39.881Z,74.15
2017-08-05T06:09:39.866Z,73.95
2017-08-05T06:10:39.861Z,73.66
2017-08-05T06:11:40.161Z,73.28
2017-08-05T06:12:39.832Z,73.47
2017-08-05T06:13:39.834Z,73.32
2017-08-05T06:14:40.130Z,73.32
2017-08-05T06:15:40.108Z,73.22
2017-08-05T06:16:40.097Z,73.32
2017-08-05T06:17:39.776Z,73.61
2017-08-05T06:18:40.075Z,73.03
2017-08-05T06:19:40.067Z,73.03
2017-08-05T06:20:40.047Z,73.03
2017-08-05T06:21:40.069Z,73.13
2017-08-05T06:22:39.714Z,72.84
2017-08-05T06:23:39.733Z,72.84
2017-08-05T06:24:40.005Z,73.03
2017-08-05T06:25:40.001Z,73.03
2017-08-05T06:26:39.980Z,73.41
2017-08-05T06:27:39.970Z,72.94
2017-08-05T06:28:39.645Z,73.03
2017-08-05T06:29:39.632Z,73.03
2017-08-05T06:30:39.934Z,73.13
2017-08-05T06:31:39.922Z,73.22
2017-08-05T06:32:39.600Z,72.94
2017-08-05T06:33:39.900Z,73.13
2017-08-05T06:34:39.895Z,73.03
2017-08-05T06:35:39.881Z,72.64
2017-08-05T06:36:39.554Z,72.94
2017-08-05T06:37:39.870Z,73.32
2017-08-05T06:38:39.540Z,73.41
2017-08-05T06:39:39.836Z,73.51
2017-08-05T06:40:39.822Z,73.41
2017-08-05T06:41:39.827Z,73.22
2017-08-05T06:42:39.800Z,73.32
2017-08-05T06:43:39.796Z,73.7
2017-08-05T06:44:39.780Z,73.8
2017-08-05T06:45:39.768Z,73.41
2017-08-05T06:46:39.445Z,74.27
2017-08-05T06:47:39.747Z,74.27
2017-08-05T06:48:39.743Z,74.37
2017-08-05T06:49:39.731Z,74.76
2017-08-05T06:50:39.711Z,74.6
2017-08-05T06:51:39.698Z,74.85
2017-08-05T06:52:39.689Z,75.04
2017-08-05T06:53:39.366Z,75.04
2017-08-05T06:54:39.667Z,75.04
2017-08-05T06:55:39.656Z,75.14
2017-08-05T06:56:39.329Z,75.04
2017-08-05T06:57:39.627Z,74.47
2017-08-05T06:58:39.312Z,74.95
2017-08-05T06:59:39.295Z,74.95
2017-08-05T07:00:39.595Z,74.76
2017-08-05T07:01:39.589Z,75.04
2017-08-05T07:02:39.572Z,75.14
2017-08-05T07:03:39.562Z,75.33
2017-08-05T07:04:39.240Z,75.04
2017-08-05T07:05:39.227Z,75.04
2017-08-05T07:06:39.534Z,74.85
2017-08-05T07:07:39.206Z,75.62
2017-08-05T07:08:39.514Z,75.43
2017-08-05T07:09:39.497Z,75.04
2017-08-05T07:10:39.171Z,75.33
2017-08-05T07:11:39.473Z,75.04
2017-08-05T07:12:39.153Z,75.52
2017-08-05T07:13:39.143Z,75.62
2017-08-05T07:14:39.436Z,75.43
2017-08-05T07:15:39.431Z,75.33
2017-08-05T07:16:39.418Z,75.14
2017-08-05T07:17:39.089Z,74.37
2017-08-05T07:18:39.080Z,74.57
2017-08-05T07:19:39.382Z,74.27
2017-08-05T07:20:39.375Z,74.27
2017-08-05T07:21:39.358Z,74.08
2017-08-05T07:22:39.035Z,74.37
2017-08-05T07:23:39.336Z,74.08
2017-08-05T07:24:39.328Z,74.57
2017-08-05T07:25:39.000Z,74.66
2017-08-05T07:26:38.992Z,74.76
2017-08-05T07:27:38.980Z,73.7
2017-08-05T07:28:39.168Z,73.8
2017-08-05T07:29:39.269Z,73.7
2017-08-05T07:30:39.260Z,73.22
2017-08-05T07:31:38.936Z,73.03
2017-08-05T07:32:38.922Z,73.32
2017-08-05T07:33:39.227Z,72.74
2017-08-05T07:34:38.902Z,72.84
2017-08-05T07:35:38.890Z,73.22
2017-08-05T07:36:38.878Z,73.7
2017-08-05T07:37:39.178Z,73.9
2017-08-05T07:38:39.188Z,74.27
2017-08-05T07:39:39.152Z,73.99
2017-08-05T07:40:39.146Z,73.32
2017-08-05T07:41:39.130Z,73.41
2017-08-05T07:42:39.122Z,73.8
2017-08-05T07:43:39.107Z,73.32
2017-08-05T07:44:38.785Z,72.64
2017-08-05T07:45:39.089Z,72.27
2017-08-05T07:46:39.074Z,72.17
2017-08-05T07:47:38.749Z,72.17
2017-08-05T07:48:38.744Z,72.36
2017-08-05T07:49:39.052Z,71.88
2017-08-05T07:50:38.719Z,71.98
2017-08-05T07:51:38.703Z,70.92
2017-08-05T07:52:39.016Z,70.44
2017-08-05T07:53:38.999Z,70.64
2017-08-05T07:54:38.986Z,71.02
2017-08-05T07:55:38.974Z,71.02
2017-08-05T07:56:38.963Z,71.02
2017-08-05T07:57:38.641Z,71.21
2017-08-05T07:58:38.940Z,70.44
2017-08-05T07:59:38.932Z,70.29
2017-08-05T08:00:38.924Z,70.09
2017-08-05T08:01:38.905Z,70.19
2017-08-05T08:02:38.900Z,70.09
2017-08-05T08:03:38.885Z,69.81
2017-08-05T08:04:38.876Z,71.05
2017-08-05T08:05:38.551Z,71.63
2017-08-05T08:06:38.854Z,71.82
2017-08-05T08:07:38.853Z,72.11
2017-08-05T08:08:38.838Z,71.25
2017-08-05T08:09:38.820Z,70.96
2017-08-05T08:10:38.498Z,71.92
2017-08-05T08:11:38.802Z,71.72
2017-08-05T08:12:38.479Z,71.05
2017-08-05T08:13:38.773Z,71.15
2017-08-05T08:14:38.764Z,71.47
2017-08-05T08:15:38.757Z,72.2
2017-08-05T08:16:38.434Z,72.72
2017-08-05T08:17:38.740Z,73.58
2017-08-05T08:18:38.721Z,73.74
2017-08-05T08:19:38.713Z,73.97
2017-08-05T08:20:38.699Z,74.06
2017-08-05T08:21:38.692Z,74.06
2017-08-05T08:22:38.367Z,73.1
2017-08-05T08:23:38.676Z,73.2
2017-08-05T08:24:38.350Z,73.2
2017-08-05T08:25:38.651Z,74.44
2017-08-05T08:26:38.641Z,73.87
2017-08-05T08:27:38.626Z,74.83
2017-08-05T08:28:38.304Z,75.5
2017-08-05T08:29:38.291Z,75.5
2017-08-05T08:30:38.600Z,75.5
2017-08-05T08:31:38.284Z,75.31
2017-08-05T08:32:38.575Z,75.6
2017-08-05T08:33:38.569Z,75.4
2017-08-05T08:34:38.556Z,76.07
2017-08-05T08:35:38.544Z,76.75
2017-08-05T08:36:38.537Z,77.04
2017-08-05T08:37:38.522Z,77.61
2017-08-05T08:38:38.517Z,78.28
2017-08-05T08:39:38.500Z,78.67
2017-08-05T08:40:38.501Z,78.86
2017-08-05T08:41:38.480Z,79.14
2017-08-05T08:42:38.482Z,78.96
2017-08-05T08:43:38.458Z,78.82
2017-08-05T08:44:38.136Z,78.09
2017-08-05T08:45:38.439Z,77.13
2017-08-05T08:46:38.431Z,76.65
2017-08-05T08:47:38.417Z,76.94
2017-08-05T08:48:38.411Z,78.28
2017-08-05T08:49:38.402Z,78.77
2017-08-05T08:50:38.390Z,78.38
2017-08-05T08:51:38.064Z,77.8
2017-08-05T08:52:38.372Z,77.33
2017-08-05T08:53:38.360Z,77.51
2017-08-05T08:54:38.036Z,77.9
2017-08-05T08:55:38.056Z,77.51
2017-08-05T08:56:38.327Z,77.51
2017-08-05T08:57:38.315Z,77.33
2017-08-05T08:58:38.304Z,77.04
2017-08-05T08:59:37.982Z,76.75
2017-08-05T09:00:37.974Z,75.89
2017-08-05T09:01:38.275Z,76.84
2017-08-05T09:02:38.264Z,76.75
2017-08-05T09:03:38.253Z,77.71
2017-08-05T09:04:37.935Z,77.61
2017-08-05T09:05:37.923Z,77.71
2017-08-05T09:06:38.224Z,75.89
2017-08-05T09:07:38.217Z,76.65
2017-08-05T09:08:38.213Z,75.89
2017-08-05T09:09:38.191Z,77.23
2017-08-05T09:10:38.183Z,77.42
2017-08-05T09:11:37.869Z,77.17
2017-08-05T09:12:37.849Z,76.17
2017-08-05T09:13:37.840Z,76.02
2017-08-05T09:14:37.835Z,77.56
2017-08-05T09:15:38.149Z,78.42
2017-08-05T09:16:38.121Z,78.99
2017-08-05T09:17:38.113Z,78.9
2017-08-05T09:18:37.791Z,78.7
2017-08-05T09:19:37.786Z,77.94
2017-08-05T09:20:38.082Z,76.79
2017-08-05T09:21:37.779Z,76.5
2017-08-05T09:22:38.064Z,77.46
2017-08-05T09:23:38.059Z,78.61
2017-08-05T09:24:38.046Z,79.09
2017-08-05T09:25:38.031Z,79.67
2017-08-05T09:26:38.021Z,79.86
2017-08-05T09:27:37.702Z,79.38
2017-08-05T09:28:38.203Z,79.76
2017-08-05T09:29:37.992Z,80.82
2017-08-05T09:30:37.979Z,80.82
2017-08-05T09:31:37.972Z,80.82
2017-08-05T09:32:37.964Z,79.96
2017-08-05T09:33:37.950Z,79.47
2017-08-05T09:34:37.631Z,79.96
2017-08-05T09:35:37.938Z,79.67
2017-08-05T09:36:37.923Z,79.86
2017-08-05T09:37:37.912Z,80.43
2017-08-05T09:38:37.586Z,80.53
2017-08-05T09:39:37.942Z,79.67
2017-08-05T09:40:37.575Z,80.58
2017-08-05T09:41:37.870Z,81.84
2017-08-05T09:42:37.549Z,81.54
2017-08-05T09:43:37.538Z,81.59
2017-08-05T09:44:37.839Z,81.26
2017-08-05T09:45:37.833Z,81.45
2017-08-05T09:46:37.827Z,80.3
2017-08-05T09:47:37.810Z,80.53
2017-08-05T09:48:37.817Z,80.34
2017-08-05T09:49:37.795Z,80.3
2017-08-05T09:50:37.780Z,80.73
2017-08-05T09:51:37.767Z,80.63
2017-08-05T09:52:37.760Z,79.63
2017-08-05T09:53:37.755Z,79.24
2017-08-05T09:54:37.740Z,78.86
2017-08-05T09:55:37.725Z,78.38
2017-08-05T09:56:37.723Z,78.38
2017-08-05T09:57:37.709Z,78.47
2017-08-05T09:58:37.705Z,79.38
2017-08-05T09:59:37.694Z,78.99
2017-08-05T10:00:37.679Z,79.19
2017-08-05T10:01:37.355Z,79.38
2017-08-05T10:02:37.344Z,80.63
2017-08-05T10:03:37.332Z,79.86
2017-08-05T10:04:37.651Z,79.96
2017-08-05T10:05:37.626Z,80.63
2017-08-05T10:06:37.615Z,81.1
2017-08-05T10:07:37.292Z,80.82
2017-08-05T10:08:37.595Z,80.82
2017-08-05T10:09:37.581Z,80.34
2017-08-05T10:10:37.573Z,80.68
2017-08-05T10:11:37.261Z,79.38
2017-08-05T10:12:37.554Z,78.52
2017-08-05T10:13:37.229Z,77.75
2017-08-05T10:14:37.535Z,78.42
2017-08-05T10:15:37.209Z,77.46
2017-08-05T10:16:37.517Z,77.46
2017-08-05T10:17:37.501Z,77.26
2017-08-05T10:18:37.181Z,77.75
2017-08-05T10:19:37.489Z,77.84
2017-08-05T10:20:37.474Z,77.56
2017-08-05T10:21:37.150Z,77.36
2017-08-05T10:22:37.139Z,77.46
2017-08-05T10:23:37.138Z,76.79
2017-08-05T10:24:37.431Z,76.79
2017-08-05T10:25:37.423Z,77.26
2017-08-05T10:26:37.420Z,77.36
2017-08-05T10:27:37.400Z,78.13
2017-08-05T10:28:37.083Z,77.75
2017-08-05T10:29:37.070Z,78.7
2017-08-05T10:30:37.058Z,78.32
2017-08-05T10:31:37.049Z,78.52
2017-08-05T10:32:37.350Z,77.56
2017-08-05T10:33:37.032Z,79.09
2017-08-05T10:34:37.336Z,81.1
2017-08-05T10:35:37.328Z,81.4
2017-08-05T10:36:37.311Z,80.53
2017-08-05T10:37:37.303Z,79.28
2017-08-05T10:38:37.290Z,78.61
2017-08-05T10:39:37.281Z,78.13
2017-08-05T10:40:36.958Z,77.88
2017-08-05T10:41:37.259Z,78.94
2017-08-05T10:42:37.247Z,79.96
2017-08-05T10:43:37.241Z,80.57
2017-08-05T10:44:37.237Z,80.76
2017-08-05T10:45:37.221Z,80.57
2017-08-05T10:46:37.215Z,83.45
2017-08-05T10:47:36.890Z,86.91
2017-08-05T10:48:36.876Z,84.41
2017-08-05T10:49:37.188Z,81.72
2017-08-05T10:50:36.874Z,82.97
2017-08-05T10:51:37.166Z,83.16
2017-08-05T10:52:36.846Z,82.1
2017-08-05T10:53:37.145Z,80.76
2017-08-05T10:54:37.132Z,81.38
2017-08-05T10:55:37.123Z,84.94
2017-08-05T10:56:36.803Z,87.15
2017-08-05T10:57:37.104Z,87.82
2017-08-05T10:58:37.098Z,87.92
2017-08-05T10:59:37.088Z,87.43
2017-08-05T11:00:37.075Z,90.03
2017-08-05T11:01:37.087Z,89.98
2017-08-05T11:02:37.061Z,89.01
2017-08-05T11:03:36.736Z,90.36
2017-08-05T11:04:36.728Z,91.9
2017-08-05T11:05:37.053Z,92.38
2017-08-05T11:06:36.719Z,92.47
2017-08-05T11:07:37.028Z,90.94
2017-08-05T11:08:37.020Z,90.94
2017-08-05T11:09:36.688Z,90.03
2017-08-05T11:10:37.004Z,87.82
2017-08-05T11:11:36.662Z,87.24
2017-08-05T11:12:36.971Z,88.78
2017-08-05T11:15:37.161Z,88.3
2017-08-05T11:16:37.462Z,84.94
2017-08-05T11:17:37.447Z,84.94
2017-08-05T11:18:37.127Z,87.53
2017-08-05T11:19:37.427Z,84.45
2017-08-05T11:20:37.423Z,83.78
2017-08-05T11:21:37.413Z,89.26
2017-08-05T11:22:37.090Z,90.7
2017-08-05T11:23:37.086Z,92.05
2017-08-05T11:24:37.384Z,90.22
2017-08-05T11:25:37.376Z,88.78
2017-08-05T11:26:37.371Z,86.66
2017-08-05T11:27:37.352Z,88.01
2017-08-05T11:28:37.762Z,86.85
2017-08-05T11:29:37.337Z,87.43
2017-08-05T11:30:37.015Z,87.39
2017-08-05T11:31:37.006Z,87.39
2017-08-05T11:32:37.309Z,85.28
2017-08-05T11:33:37.296Z,83.45
2017-08-05T11:34:37.283Z,83.93
2017-08-05T11:35:37.340Z,84.22
2017-08-05T11:36:37.266Z,82.87
2017-08-05T11:37:36.947Z,81.05
2017-08-05T11:38:37.247Z,81.63
2017-08-05T11:39:37.238Z,82.4
2017-08-05T11:40:37.228Z,82.01
2017-08-05T11:41:37.218Z,82.3
2017-08-05T11:42:37.206Z,81.15
2017-08-05T11:43:37.198Z,80.86
2017-08-05T11:44:37.191Z,84.45
2017-08-05T11:45:36.866Z,84.12
2017-08-05T11:46:37.247Z,84.17
2017-08-05T11:47:37.163Z,83.74
2017-08-05T11:48:36.835Z,83.74
2017-08-05T11:49:37.143Z,80.57
2017-08-05T11:50:37.133Z,81.82
2017-08-05T11:51:37.120Z,83.07
2017-08-05T11:52:37.111Z,82.01
2017-08-05T11:53:37.102Z,81.82
2017-08-05T11:54:37.099Z,83.45
2017-08-05T11:55:37.084Z,82.49
2017-08-05T11:56:36.760Z,81.63
2017-08-05T11:57:37.091Z,81.34
2017-08-05T11:58:36.745Z,79.61
2017-08-05T11:59:37.045Z,82.59
2017-08-05T12:00:36.719Z,81.24
2017-08-05T12:01:37.027Z,80.71
2017-08-05T12:02:37.017Z,79.36
2017-08-05T12:03:37.014Z,83.78
2017-08-05T12:04:36.999Z,82.43
2017-08-05T12:05:36.987Z,85.22
2017-08-05T12:06:36.667Z,86.85
2017-08-05T12:07:36.658Z,86.95
2017-08-05T12:08:36.646Z,86.57
2017-08-05T12:09:36.953Z,86.47
2017-08-05T12:10:36.944Z,88.1
2017-08-05T12:11:36.625Z,89.74
2017-08-05T12:12:36.613Z,85.99
2017-08-05T12:13:36.606Z,83.78
2017-08-05T12:14:36.595Z,83.97
2017-08-05T12:15:36.898Z,85.99
2017-08-05T12:16:36.891Z,85.8
2017-08-05T12:17:36.879Z,84.55
2017-08-05T12:18:36.872Z,85.61
2017-08-05T12:19:36.875Z,87.24
2017-08-05T12:20:36.866Z,90.31
2017-08-05T12:21:36.852Z,87.77
2017-08-05T12:22:36.834Z,89.64
2017-08-05T12:23:36.828Z,89.79
2017-08-05T12:24:36.815Z,89.6
2017-08-05T12:25:36.492Z,91.71
2017-08-05T12:26:36.797Z,90.56
2017-08-05T12:27:36.476Z,90.37
2017-08-05T12:28:36.772Z,91.04
2017-08-05T12:29:36.456Z,88.83
2017-08-05T12:30:36.449Z,84.41
2017-08-05T12:31:36.434Z,84.51
2017-08-05T12:32:36.743Z,87.1
2017-08-05T12:33:36.421Z,85.75
2017-08-05T12:34:36.718Z,85.66
2017-08-05T12:35:36.398Z,90.84
2017-08-05T12:36:36.706Z,93.39
2017-08-05T12:37:36.384Z,90.41
2017-08-05T12:38:36.685Z,89.74
2017-08-05T12:39:36.367Z,93.87
2017-08-05T12:40:36.668Z,91.61
2017-08-05T12:41:36.345Z,97.24
2017-08-05T12:42:36.335Z,95.7
2017-08-05T12:43:36.330Z,96.75
2017-08-05T12:44:36.629Z,99.99
2017-08-05T12:45:36.623Z,99.99
2017-08-05T12:46:36.620Z,98.77
2017-08-05T12:47:36.609Z,99.99
2017-08-05T12:48:36.342Z,97.04
2017-08-05T12:49:36.595Z,99.99
2017-08-05T12:50:36.587Z,99.99
2017-08-05T12:51:36.266Z,99.99
2017-08-05T12:52:36.573Z,99.99
2017-08-05T12:53:36.258Z,99.99
2017-08-05T12:54:36.562Z,99.99
2017-08-05T12:55:36.564Z,99.99
2017-08-05T12:56:36.549Z,99.99